Time;durP1;ratioP1;P1;durP2;ratioP2;P2;SDS_P1;SDS_P2;PMS_P1;PMS_P2;Temp;Humidity;BMP_temperature;BMP_pressure;BME280_temperature;BME280_humidity;BME280_pressure;Samples;Min_cycle;Max_cycle;Signal;HPM_P1;HPM_P2
2022/05/18 00:00:17;;;;;;;7.57;6.88;;;;;;;;;;5016690;28;20678;-72
2022/05/18 00:02:43;;;;;;;8.10;7.30;;;;;;;;;;5002506;28;21103;-72
2022/05/18 00:05:11;;;;;;;8.02;7.38;;;;;;;;;;5015976;28;20247;-74
2022/05/18 00:07:38;;;;;;;8.20;7.50;;;;;;;;;;4970106;28;20231;-73
2022/05/18 00:10:09;;;;;;;8.65;7.85;;;;;;;;;;5017597;28;20227;-72
2022/05/18 00:12:35;;;;;;;8.88;8.00;;;;;;;;;;4993631;28;20607;-73
2022/05/18 00:15:00;;;;;;;8.65;7.95;;;;;;;;;;4962550;28;20275;-73
2022/05/18 00:17:28;;;;;;;9.50;8.70;;;;;;;;;;4999671;28;20224;-73
2022/05/18 00:19:54;;;;;;;9.63;8.73;;;;;;;;;;4995599;28;20224;-72
2022/05/18 00:22:24;;;;;;;9.48;8.57;;;;;;;;;;5005576;28;20227;-73
2022/05/18 00:24:52;;;;;;;9.23;8.43;;;;;;;;;;4993066;28;20697;-72
2022/05/18 00:27:21;;;;;;;10.00;9.20;;;;;;;;;;5011881;28;20455;-72
2022/05/18 00:29:47;;;;;;;9.75;8.95;;;;;;;;;;4992426;28;20229;-73
2022/05/18 00:32:16;;;;;;;9.88;8.98;;;;;;;;;;4994829;28;20216;-72
2022/05/18 00:34:42;;;;;;;11.02;10.10;;;;;;;;;;5006033;28;20224;-73
2022/05/18 00:37:10;;;;;;;10.80;9.90;;;;;;;;;;5018650;28;20324;-73
2022/05/18 00:39:36;;;;;;;10.52;9.73;;;;;;;;;;5006054;28;20232;-73
2022/05/18 00:42:04;;;;;;;11.65;10.65;;;;;;;;;;5006472;28;20327;-73
2022/05/18 00:44:29;;;;;;;11.88;10.70;;;;;;;;;;4989045;28;20248;-72
2022/05/18 00:46:54;;;;;;;11.25;10.25;;;;;;;;;;4979505;28;20227;-72
2022/05/18 00:49:23;;;;;;;10.85;9.95;;;;;;;;;;4992017;28;20248;-72
2022/05/18 00:51:53;;;;;;;12.60;11.35;;;;;;;;;;5003101;28;20423;-73
2022/05/18 00:54:25;;;;;;;11.50;10.50;;;;;;;;;;4989017;28;20714;-71
2022/05/18 00:56:54;;;;;;;11.23;10.20;;;;;;;;;;4973967;28;20290;-72
2022/05/18 00:59:28;;;;;;;11.60;10.60;;;;;;;;;;4988377;28;20243;-72
2022/05/18 01:01:55;;;;;;;11.93;10.93;;;;;;;;;;4972584;28;20332;-72
2022/05/18 01:04:21;;;;;;;11.18;10.13;;;;;;;;;;4989821;28;20220;-72
2022/05/18 01:07:00;;;;;;;11.55;10.52;;;;;;;;;;4975741;28;20216;-73
2022/05/18 01:09:32;;;;;;;11.55;10.45;;;;;;;;;;4995080;28;20220;-73
2022/05/18 01:12:00;;;;;;;11.55;10.55;;;;;;;;;;4976648;28;20229;-72
2022/05/18 01:14:37;;;;;;;11.98;10.90;;;;;;;;;;5004804;28;20217;-71
2022/05/18 01:17:02;;;;;;;11.68;10.50;;;;;;;;;;4978295;28;20611;-74
2022/05/18 01:19:36;;;;;;;12.00;10.90;;;;;;;;;;4979869;28;20220;-73
2022/05/18 01:22:15;;;;;;;11.55;10.55;;;;;;;;;;4976581;28;20232;-73
2022/05/18 01:24:52;;;;;;;13.18;11.88;;;;;;;;;;4973391;28;20292;-73
2022/05/18 01:27:20;;;;;;;13.30;12.02;;;;;;;;;;5006829;28;20698;-72
2022/05/18 01:29:48;;;;;;;13.52;12.43;;;;;;;;;;4988398;28;20239;-73
2022/05/18 01:32:15;;;;;;;13.18;11.98;;;;;;;;;;4988210;28;20248;-72
2022/05/18 01:34:42;;;;;;;13.20;12.10;;;;;;;;;;4997263;28;20222;-73
2022/05/18 01:37:11;;;;;;;13.98;12.68;;;;;;;;;;5028585;28;20233;-72
2022/05/18 01:39:41;;;;;;;13.43;12.32;;;;;;;;;;4992492;28;20220;-73
2022/05/18 01:42:19;;;;;;;13.73;12.55;;;;;;;;;;4961515;28;20288;-72
2022/05/18 01:44:45;;;;;;;14.57;13.27;;;;;;;;;;4982030;28;20269;-72
2022/05/18 01:47:10;;;;;;;14.63;13.32;;;;;;;;;;4991042;28;20228;-71
2022/05/18 01:49:39;;;;;;;13.90;12.70;;;;;;;;;;4988213;28;20220;-71
2022/05/18 01:52:06;;;;;;;13.65;12.48;;;;;;;;;;5012491;28;20252;-74
2022/05/18 01:54:39;;;;;;;14.40;13.10;;;;;;;;;;4978349;28;20279;-73
2022/05/18 01:57:05;;;;;;;14.02;12.80;;;;;;;;;;5008555;28;20237;-72
2022/05/18 01:59:30;;;;;;;13.88;12.68;;;;;;;;;;5001162;28;20224;-72
2022/05/18 02:01:57;;;;;;;13.75;12.38;;;;;;;;;;4997626;28;20316;-74
2022/05/18 02:04:23;;;;;;;14.65;13.25;;;;;;;;;;4995360;28;20312;-72
2022/05/18 02:06:50;;;;;;;14.15;12.85;;;;;;;;;;5013284;28;20311;-72
2022/05/18 02:09:19;;;;;;;14.25;12.57;;;;;;;;;;4998877;28;20228;-72
2022/05/18 02:11:48;;;;;;;13.35;12.05;;;;;;;;;;4982019;28;20232;-72
2022/05/18 02:14:16;;;;;;;12.90;11.80;;;;;;;;;;4994497;28;20235;-73
2022/05/18 02:16:44;;;;;;;14.23;12.93;;;;;;;;;;4977307;28;20318;-72
2022/05/18 02:19:10;;;;;;;13.20;12.00;;;;;;;;;;4980021;28;20219;-73
2022/05/18 02:21:37;;;;;;;13.32;12.15;;;;;;;;;;4972929;28;20706;-73
2022/05/18 02:24:08;;;;;;;12.07;11.07;;;;;;;;;;4994947;28;20699;-72
2022/05/18 02:26:36;;;;;;;13.82;12.43;;;;;;;;;;4988912;28;20708;-72
2022/05/18 02:29:02;;;;;;;12.77;11.65;;;;;;;;;;4988691;28;20220;-72
2022/05/18 02:31:28;;;;;;;12.80;11.57;;;;;;;;;;4987243;28;20358;-73
2022/05/18 02:33:53;;;;;;;12.80;11.50;;;;;;;;;;5022756;28;20311;-74
2022/05/18 02:36:21;;;;;;;13.57;12.13;;;;;;;;;;4988329;28;20774;-73
2022/05/18 02:38:48;;;;;;;12.10;11.00;;;;;;;;;;5006221;28;20252;-73
2022/05/18 02:41:14;;;;;;;12.95;11.85;;;;;;;;;;5012135;28;20536;-73
2022/05/18 02:43:40;;;;;;;12.43;11.35;;;;;;;;;;5014016;28;20217;-72
2022/05/18 02:46:13;;;;;;;13.68;12.45;;;;;;;;;;4971573;28;20378;-73
2022/05/18 02:48:40;;;;;;;12.93;11.73;;;;;;;;;;4967514;28;20228;-73
2022/05/18 02:51:08;;;;;;;13.70;12.30;;;;;;;;;;4992156;28;20257;-71
2022/05/18 02:53:34;;;;;;;13.40;12.23;;;;;;;;;;4982182;28;20231;-72
2022/05/18 02:56:08;;;;;;;13.68;12.57;;;;;;;;;;4982849;28;20229;-72
2022/05/18 02:58:33;;;;;;;13.65;12.32;;;;;;;;;;5015088;28;20729;-73
2022/05/18 03:01:00;;;;;;;14.35;13.07;;;;;;;;;;5018280;28;20217;-73
2022/05/18 03:03:29;;;;;;;14.40;13.10;;;;;;;;;;5022409;28;20223;-73
2022/05/18 03:05:55;;;;;;;13.90;12.70;;;;;;;;;;4995335;28;20346;-73
2022/05/18 03:08:20;;;;;;;14.13;12.93;;;;;;;;;;5028585;28;20727;-74
2022/05/18 03:10:48;;;;;;;14.80;13.40;;;;;;;;;;4989656;28;20251;-72
2022/05/18 03:13:18;;;;;;;14.80;13.40;;;;;;;;;;4987182;28;20209;-73
2022/05/18 03:15:46;;;;;;;15.27;13.98;;;;;;;;;;5023275;28;20223;-75
2022/05/18 03:18:14;;;;;;;13.73;12.52;;;;;;;;;;4991235;28;20324;-73
2022/05/18 03:23:33;;;;;;;15.43;14.02;;;;;;;;;;4996469;28;20216;-72
2022/05/18 03:26:01;;;;;;;15.07;13.68;;;;;;;;;;5023016;28;20224;-73
2022/05/18 03:28:27;;;;;;;15.60;14.18;;;;;;;;;;4997419;28;20227;-74
2022/05/18 03:30:52;;;;;;;16.13;14.52;;;;;;;;;;5006911;28;20224;-73
2022/05/18 03:33:18;;;;;;;15.50;14.10;;;;;;;;;;4993392;28;20303;-73
2022/05/18 03:35:45;;;;;;;17.67;16.02;;;;;;;;;;5012625;28;20230;-73
2022/05/18 03:38:11;;;;;;;16.73;15.23;;;;;;;;;;4990217;28;20220;-74
2022/05/18 03:40:41;;;;;;;18.38;16.67;;;;;;;;;;5020944;28;20736;-72
2022/05/18 03:43:10;;;;;;;18.65;16.85;;;;;;;;;;5005500;28;20224;-72
2022/05/18 03:45:49;;;;;;;17.27;15.75;;;;;;;;;;4981434;28;20277;-71
2022/05/18 03:48:14;;;;;;;18.02;16.50;;;;;;;;;;4981766;28;20227;-72
2022/05/18 03:50:41;;;;;;;18.60;16.90;;;;;;;;;;5012108;28;20568;-72
2022/05/18 03:53:07;;;;;;;18.55;16.85;;;;;;;;;;4979896;28;20220;-72
2022/05/18 03:55:32;;;;;;;17.30;15.80;;;;;;;;;;5008738;28;20713;-73
2022/05/18 03:57:58;;;;;;;18.30;16.60;;;;;;;;;;4974198;28;20260;-73
2022/05/18 04:00:26;;;;;;;18.45;16.75;;;;;;;;;;5006534;28;20819;-72
2022/05/18 04:02:51;;;;;;;19.40;17.63;;;;;;;;;;4993976;28;20223;-73
2022/05/18 04:05:17;;;;;;;18.75;17.05;;;;;;;;;;4996814;28;20216;-71
2022/05/18 04:07:43;;;;;;;18.48;16.88;;;;;;;;;;4981011;28;20229;-72
2022/05/18 04:10:09;;;;;;;18.88;17.08;;;;;;;;;;5006048;28;20230;-71
2022/05/18 04:12:36;;;;;;;18.10;16.45;;;;;;;;;;4987917;28;20216;-72
2022/05/18 04:15:02;;;;;;;18.77;17.05;;;;;;;;;;5004885;28;20235;-72
2022/05/18 04:17:30;;;;;;;19.17;17.40;;;;;;;;;;4977726;28;20228;-71
2022/05/18 04:19:56;;;;;;;17.85;16.35;;;;;;;;;;5021565;28;20252;-72
2022/05/18 04:22:23;;;;;;;18.80;17.10;;;;;;;;;;4988177;28;20209;-74
2022/05/18 04:24:49;;;;;;;18.00;16.40;;;;;;;;;;4976289;28;20765;-74
2022/05/18 04:27:14;;;;;;;17.88;16.30;;;;;;;;;;5022470;28;20231;-73
2022/05/18 04:29:42;;;;;;;17.80;16.30;;;;;;;;;;5006691;28;20216;-74
2022/05/18 04:32:08;;;;;;;17.38;15.75;;;;;;;;;;4974686;28;20957;-73
2022/05/18 04:34:33;;;;;;;17.10;15.50;;;;;;;;;;5008856;28;20220;-73
2022/05/18 04:37:04;;;;;;;16.77;15.18;;;;;;;;;;4992010;28;20278;-73
2022/05/18 04:39:29;;;;;;;16.75;15.23;;;;;;;;;;4993479;28;20216;-73
2022/05/18 04:41:57;;;;;;;16.20;14.57;;;;;;;;;;4979023;28;20239;-72
2022/05/18 04:44:22;;;;;;;16.27;14.88;;;;;;;;;;5004401;28;20315;-73
2022/05/18 04:46:56;;;;;;;16.33;14.80;;;;;;;;;;5005398;28;20225;-72
2022/05/18 04:49:25;;;;;;;14.88;13.45;;;;;;;;;;4988002;28;20225;-73
2022/05/18 04:51:53;;;;;;;14.98;13.77;;;;;;;;;;5021254;28;20225;-73
2022/05/18 04:54:20;;;;;;;15.07;13.70;;;;;;;;;;4991134;28;20601;-72
2022/05/18 04:56:51;;;;;;;15.43;14.10;;;;;;;;;;4994001;28;20328;-72
2022/05/18 04:59:16;;;;;;;14.38;13.18;;;;;;;;;;4990799;28;20637;-72
2022/05/18 05:01:46;;;;;;;15.55;14.15;;;;;;;;;;5000196;28;20721;-73
2022/05/18 05:04:14;;;;;;;15.70;14.40;;;;;;;;;;4992414;28;20212;-71
2022/05/18 05:06:40;;;;;;;14.90;13.60;;;;;;;;;;4987814;28;20231;-72
2022/05/18 05:09:06;;;;;;;14.88;13.48;;;;;;;;;;4993889;28;20220;-72
2022/05/18 05:11:31;;;;;;;14.52;13.18;;;;;;;;;;5009430;28;20227;-71
2022/05/18 05:13:57;;;;;;;14.75;13.38;;;;;;;;;;5009209;28;20613;-71
2022/05/18 05:16:22;;;;;;;14.32;13.13;;;;;;;;;;5012060;28;20463;-72
2022/05/18 05:18:50;;;;;;;14.27;12.82;;;;;;;;;;4984091;28;20713;-71
2022/05/18 05:21:18;;;;;;;14.48;13.27;;;;;;;;;;5018604;28;20265;-72
2022/05/18 05:23:43;;;;;;;14.23;13.10;;;;;;;;;;4989267;28;20224;-72
2022/05/18 05:26:09;;;;;;;14.05;12.75;;;;;;;;;;5000680;28;20310;-72
2022/05/18 05:28:36;;;;;;;13.85;12.65;;;;;;;;;;5006600;28;20224;-73
2022/05/18 05:31:08;;;;;;;13.25;12.15;;;;;;;;;;4989965;28;20231;-72
2022/05/18 05:33:34;;;;;;;13.32;12.07;;;;;;;;;;4989977;28;20379;-72
2022/05/18 05:36:02;;;;;;;13.27;12.15;;;;;;;;;;4992998;28;20252;-73
2022/05/18 05:38:28;;;;;;;13.70;12.50;;;;;;;;;;4989110;28;20220;-71
2022/05/18 05:41:01;;;;;;;13.40;12.30;;;;;;;;;;5001731;28;20232;-71
2022/05/18 05:43:27;;;;;;;12.93;11.70;;;;;;;;;;4994715;28;20241;-72
2022/05/18 05:46:00;;;;;;;13.00;12.00;;;;;;;;;;4999367;28;20273;-71
2022/05/18 05:48:26;;;;;;;12.82;11.73;;;;;;;;;;4989500;28;20351;-71
2022/05/18 05:50:52;;;;;;;12.20;11.15;;;;;;;;;;4990696;28;20232;-72
2022/05/18 05:53:17;;;;;;;13.10;12.00;;;;;;;;;;4995171;28;20224;-72
2022/05/18 05:55:43;;;;;;;12.38;11.38;;;;;;;;;;4996667;28;20665;-72
2022/05/18 05:58:11;;;;;;;11.88;10.77;;;;;;;;;;4993638;28;20229;-71
2022/05/18 06:00:36;;;;;;;11.38;10.38;;;;;;;;;;5001142;28;20220;-72
2022/05/18 06:03:03;;;;;;;11.73;10.63;;;;;;;;;;5018406;28;20232;-72
2022/05/18 06:05:29;;;;;;;11.88;10.82;;;;;;;;;;5023667;28;20227;-72
2022/05/18 06:07:59;;;;;;;12.45;11.25;;;;;;;;;;5009369;28;20284;-70
2022/05/18 06:10:25;;;;;;;12.15;10.95;;;;;;;;;;4997703;28;20220;-71
2022/05/18 06:12:50;;;;;;;12.40;11.20;;;;;;;;;;4995476;28;20302;-71
2022/05/18 06:15:16;;;;;;;11.70;10.70;;;;;;;;;;5025088;28;20223;-71
2022/05/18 06:17:44;;;;;;;11.60;10.50;;;;;;;;;;5001587;28;20620;-72
2022/05/18 06:20:12;;;;;;;11.75;10.75;;;;;;;;;;5007125;28;20212;-71
2022/05/18 06:22:38;;;;;;;11.70;10.63;;;;;;;;;;5026221;28;20692;-72
2022/05/18 06:25:04;;;;;;;12.45;11.35;;;;;;;;;;4997801;28;20307;-72
2022/05/18 06:27:29;;;;;;;11.43;10.40;;;;;;;;;;4995295;28;20610;-72
2022/05/18 06:29:55;;;;;;;10.70;9.73;;;;;;;;;;5002501;28;20244;-72
2022/05/18 06:32:20;;;;;;;9.73;8.95;;;;;;;;;;5012686;28;20228;-72
2022/05/18 06:34:46;;;;;;;10.88;9.82;;;;;;;;;;5012381;28;20748;-72
2022/05/18 06:37:12;;;;;;;12.30;11.18;;;;;;;;;;5003547;28;20291;-72
2022/05/18 06:39:38;;;;;;;11.45;10.35;;;;;;;;;;4973127;28;20262;-72
2022/05/18 06:42:04;;;;;;;10.82;9.77;;;;;;;;;;4986759;28;20233;-73
2022/05/18 06:44:35;;;;;;;11.25;10.10;;;;;;;;;;4983719;28;20253;-71
2022/05/18 06:47:01;;;;;;;11.32;10.27;;;;;;;;;;5012924;28;20731;-73
2022/05/18 06:49:26;;;;;;;10.98;9.93;;;;;;;;;;4986265;28;20770;-73
2022/05/18 06:51:57;;;;;;;10.52;9.65;;;;;;;;;;5012830;28;20225;-72
2022/05/18 06:54:25;;;;;;;9.63;8.73;;;;;;;;;;4961309;28;20238;-72
2022/05/18 06:56:50;;;;;;;9.32;8.52;;;;;;;;;;5003210;28;20598;-72
2022/05/18 06:59:19;;;;;;;10.35;9.55;;;;;;;;;;4997042;28;20231;-73
2022/05/18 07:01:44;;;;;;;10.70;9.70;;;;;;;;;;5012757;28;20693;-73
2022/05/18 07:04:10;;;;;;;11.27;9.40;;;;;;;;;;4982616;28;20215;-73
2022/05/18 07:06:38;;;;;;;11.48;8.90;;;;;;;;;;4992912;28;20733;-72
2022/05/18 07:09:08;;;;;;;9.35;8.38;;;;;;;;;;4992763;28;20227;-72
2022/05/18 07:11:36;;;;;;;9.25;8.35;;;;;;;;;;4996017;28;20235;-71
2022/05/18 07:14:02;;;;;;;10.40;9.15;;;;;;;;;;4995988;28;20239;-72
2022/05/18 07:16:29;;;;;;;9.55;8.65;;;;;;;;;;4976346;28;20295;-72
2022/05/18 07:18:57;;;;;;;9.35;8.45;;;;;;;;;;5004651;28;20309;-72
2022/05/18 07:21:25;;;;;;;10.13;9.07;;;;;;;;;;5007952;28;20216;-73
2022/05/18 07:23:53;;;;;;;9.30;8.40;;;;;;;;;;4981942;28;20221;-72
2022/05/18 07:26:19;;;;;;;8.65;7.72;;;;;;;;;;5019239;28;20220;-72
2022/05/18 07:28:45;;;;;;;8.40;7.40;;;;;;;;;;4998924;28;20239;-72
2022/05/18 07:31:13;;;;;;;7.97;7.20;;;;;;;;;;5022978;28;20596;-72
2022/05/18 07:33:38;;;;;;;7.80;7.10;;;;;;;;;;4997978;28;20768;-71
2022/05/18 07:36:13;;;;;;;8.80;6.65;;;;;;;;;;5015901;28;20311;-72
2022/05/18 07:38:40;;;;;;;7.20;6.32;;;;;;;;;;5004480;28;20736;-72
2022/05/18 07:41:10;;;;;;;7.20;6.55;;;;;;;;;;5012659;28;20278;-73
2022/05/18 07:43:36;;;;;;;7.88;6.70;;;;;;;;;;4997581;28;20229;-73
2022/05/18 07:46:01;;;;;;;7.10;6.40;;;;;;;;;;4990165;28;20239;-72
2022/05/18 07:48:27;;;;;;;6.22;5.53;;;;;;;;;;4979485;28;20228;-73
2022/05/18 07:50:52;;;;;;;7.93;5.95;;;;;;;;;;4982722;28;20229;-73
2022/05/18 07:53:18;;;;;;;8.77;5.93;;;;;;;;;;4957772;28;20243;-72
2022/05/18 07:55:52;;;;;;;6.95;6.20;;;;;;;;;;5022492;28;20212;-72
2022/05/18 07:58:18;;;;;;;7.82;5.32;;;;;;;;;;4986608;28;20247;-72
2022/05/18 08:00:44;;;;;;;5.90;5.18;;;;;;;;;;5009035;28;20314;-73
2022/05/18 08:03:12;;;;;;;7.32;5.47;;;;;;;;;;4973952;28;20354;-73
2022/05/18 08:05:39;;;;;;;5.97;5.43;;;;;;;;;;4995867;28;20282;-73
2022/05/18 08:08:10;;;;;;;5.80;5.28;;;;;;;;;;5024720;28;20736;-72
2022/05/18 08:16:10;;;;;;;5.55;5.13;;;;;;;;;;4994018;28;20215;-72
2022/05/18 08:18:36;;;;;;;5.63;4.93;;;;;;;;;;4990350;28;20315;-73
2022/05/18 08:21:06;;;;;;;4.93;4.55;;;;;;;;;;4955871;28;20679;-73
2022/05/18 08:23:33;;;;;;;7.20;5.75;;;;;;;;;;5013165;28;20223;-72
2022/05/18 08:26:01;;;;;;;6.38;5.57;;;;;;;;;;4980601;28;20219;-72
2022/05/18 08:28:26;;;;;;;6.47;4.90;;;;;;;;;;5009494;28;20274;-73
2022/05/18 08:30:55;;;;;;;5.78;5.28;;;;;;;;;;5010144;28;20702;-73
2022/05/18 08:33:21;;;;;;;7.63;5.32;;;;;;;;;;5017813;28;20372;-72
2022/05/18 08:35:47;;;;;;;5.45;4.95;;;;;;;;;;5001133;28;20743;-71
2022/05/18 08:38:14;;;;;;;6.10;4.90;;;;;;;;;;4991064;28;20229;-72
2022/05/18 08:41:02;;;;;;;6.03;4.80;;;;;;;;;;4970382;28;20243;-73
2022/05/18 08:43:31;;;;;;;6.20;5.43;;;;;;;;;;5009679;28;20224;-72
2022/05/18 08:46:29;;;;;;;5.10;4.70;;;;;;;;;;4991595;28;20227;-73
2022/05/18 08:49:06;;;;;;;4.82;4.43;;;;;;;;;;5005914;28;20690;-72
2022/05/18 08:51:52;;;;;;;5.43;4.20;;;;;;;;;;5010521;28;20750;-71
2022/05/18 08:54:18;;;;;;;4.72;4.18;;;;;;;;;;4997340;28;20239;-72
2022/05/18 08:56:48;;;;;;;5.72;4.43;;;;;;;;;;4998845;28;20224;-72
2022/05/18 08:59:17;;;;;;;5.05;4.30;;;;;;;;;;4980585;28;20224;-72
2022/05/18 09:01:46;;;;;;;5.90;4.00;;;;;;;;;;4989611;28;20306;-72
2022/05/18 09:04:24;;;;;;;7.57;4.68;;;;;;;;;;4991093;28;20211;-73
2022/05/18 09:06:58;;;;;;;5.15;4.25;;;;;;;;;;4977768;28;20227;-73
2022/05/18 09:12:12;;;;;;;4.80;4.28;;;;;;;;;;4995716;28;20261;-72
2022/05/18 09:14:39;;;;;;;7.65;4.30;;;;;;;;;;5006367;28;20260;-73
2022/05/18 09:17:12;;;;;;;4.78;4.05;;;;;;;;;;4974039;28;20220;-73
2022/05/18 09:19:57;;;;;;;4.32;3.92;;;;;;;;;;5006881;28;20229;-73
2022/05/18 09:22:56;;;;;;;5.20;4.50;;;;;;;;;;5006989;28;20228;-72
2022/05/18 09:25:29;;;;;;;4.60;4.20;;;;;;;;;;4992412;28;20224;-74
2022/05/18 09:28:35;;;;;;;4.85;4.35;;;;;;;;;;4992726;28;20228;-72
2022/05/18 09:31:22;;;;;;;5.57;3.92;;;;;;;;;;4994371;28;20220;-73
2022/05/18 09:33:53;;;;;;;4.40;4.00;;;;;;;;;;5021154;28;20231;-71
2022/05/18 09:36:56;;;;;;;4.15;3.85;;;;;;;;;;5017032;28;20216;-73
2022/05/18 09:39:34;;;;;;;4.53;4.00;;;;;;;;;;5016289;28;20608;-79
2022/05/18 09:42:08;;;;;;;4.22;3.78;;;;;;;;;;5002397;28;20239;-73
2022/05/18 09:44:46;;;;;;;5.28;4.45;;;;;;;;;;4977947;28;20216;-72
2022/05/18 09:47:16;;;;;;;5.45;3.95;;;;;;;;;;5000272;28;20254;-73
2022/05/18 09:49:50;;;;;;;4.63;4.00;;;;;;;;;;4994117;28;20219;-72
2022/05/18 09:52:17;;;;;;;4.30;3.60;;;;;;;;;;5007284;28;20274;-73
2022/05/18 09:54:47;;;;;;;4.45;3.75;;;;;;;;;;4998631;28;20216;-73
2022/05/18 09:57:23;;;;;;;4.97;3.50;;;;;;;;;;4996657;28;20227;-73
2022/05/18 09:59:52;;;;;;;6.10;3.80;;;;;;;;;;4985523;28;20229;-71
2022/05/18 10:07:57;;;;;;;3.53;3.22;;;;;;;;;;5010080;28;20238;-72
2022/05/18 10:10:24;;;;;;;3.75;3.10;;;;;;;;;;5001008;28;20228;-72
2022/05/18 10:12:58;;;;;;;4.68;3.88;;;;;;;;;;5005105;28;20271;-72
2022/05/18 10:15:23;;;;;;;4.03;3.72;;;;;;;;;;5014766;28;20223;-73
2022/05/18 10:18:00;;;;;;;6.18;3.75;;;;;;;;;;4998505;28;20238;-73
2022/05/18 10:20:31;;;;;;;5.05;3.70;;;;;;;;;;4994961;28;20219;-73
2022/05/18 10:23:01;;;;;;;4.82;3.40;;;;;;;;;;5010939;28;20287;-72
2022/05/18 10:25:48;;;;;;;4.10;3.42;;;;;;;;;;4981036;28;20240;-73
2022/05/18 10:28:24;;;;;;;4.53;3.60;;;;;;;;;;4981581;28;20232;-72
2022/05/18 10:31:04;;;;;;;4.47;3.00;;;;;;;;;;4994310;28;20212;-72
2022/05/18 10:33:39;;;;;;;4.80;3.22;;;;;;;;;;5006894;28;20286;-73
2022/05/18 10:36:11;;;;;;;4.80;3.35;;;;;;;;;;5010830;28;20228;-74
2022/05/18 10:38:50;;;;;;;4.82;3.30;;;;;;;;;;4999974;28;20224;-74
2022/05/18 10:41:24;;;;;;;3.40;3.00;;;;;;;;;;4992298;28;20232;-72
2022/05/18 10:43:59;;;;;;;4.00;3.25;;;;;;;;;;4996322;28;20226;-73
2022/05/18 10:46:32;;;;;;;3.20;2.72;;;;;;;;;;5004084;28;20311;-72
2022/05/18 10:49:03;;;;;;;4.20;3.15;;;;;;;;;;4999541;28;20212;-73
2022/05/18 10:51:43;;;;;;;3.00;2.70;;;;;;;;;;4980575;28;20224;-72
2022/05/18 10:54:27;;;;;;;4.38;2.75;;;;;;;;;;4997099;28;20216;-72
2022/05/18 10:57:08;;;;;;;4.35;2.83;;;;;;;;;;5003106;28;20659;-72
2022/05/18 10:59:48;;;;;;;3.83;2.60;;;;;;;;;;4976860;28;20761;-72
2022/05/18 11:02:27;;;;;;;2.67;2.47;;;;;;;;;;5007462;28;20773;-72
2022/05/18 11:05:16;;;;;;;5.40;2.80;;;;;;;;;;5024325;28;20250;-73
2022/05/18 11:07:42;;;;;;;6.60;2.97;;;;;;;;;;5019620;28;20239;-73
2022/05/18 11:10:08;;;;;;;2.90;2.58;;;;;;;;;;5009018;28;20236;-72
2022/05/18 11:12:51;;;;;;;6.05;2.90;;;;;;;;;;5022773;28;20221;-72
2022/05/18 11:15:39;;;;;;;4.13;2.78;;;;;;;;;;5011591;28;20225;-73
2022/05/18 11:18:24;;;;;;;3.15;2.63;;;;;;;;;;5010826;28;20295;-72
2022/05/18 11:20:54;;;;;;;3.78;2.58;;;;;;;;;;5020520;28;20239;-73
2022/05/18 11:23:43;;;;;;;4.20;2.80;;;;;;;;;;5012658;28;20286;-72
2022/05/18 11:26:40;;;;;;;3.92;2.75;;;;;;;;;;4998040;28;20967;-72
2022/05/18 11:29:22;;;;;;;4.32;2.90;;;;;;;;;;5028338;28;20233;-72
2022/05/18 11:32:14;;;;;;;3.42;2.85;;;;;;;;;;5012740;28;20230;-72
2022/05/18 11:34:57;;;;;;;3.95;2.72;;;;;;;;;;5013395;28;20220;-72
2022/05/18 11:37:50;;;;;;;3.25;2.53;;;;;;;;;;5001994;28;20232;-72
2022/05/18 11:40:28;;;;;;;4.60;3.00;;;;;;;;;;5031824;28;20220;-72
2022/05/18 11:43:25;;;;;;;3.08;2.85;;;;;;;;;;5017576;28;20224;-72
2022/05/18 11:45:59;;;;;;;4.63;2.63;;;;;;;;;;5012796;28;20601;-72
2022/05/18 11:48:46;;;;;;;3.10;2.70;;;;;;;;;;5005939;28;20216;-71
2022/05/18 11:51:33;;;;;;;2.95;2.63;;;;;;;;;;5015542;28;20255;-72
2022/05/18 11:53:59;;;;;;;2.95;2.60;;;;;;;;;;5022231;28;20416;-73
2022/05/18 11:57:06;;;;;;;3.42;2.85;;;;;;;;;;5026772;28;20240;-72
2022/05/18 11:59:55;;;;;;;3.63;2.58;;;;;;;;;;4983167;28;20221;-73
2022/05/18 12:02:55;;;;;;;4.57;3.15;;;;;;;;;;5025597;28;20291;-72
2022/05/18 12:05:34;;;;;;;5.22;2.60;;;;;;;;;;5020573;28;20208;-73
2022/05/18 12:08:27;;;;;;;5.00;2.60;;;;;;;;;;5021149;28;20769;-72
2022/05/18 12:11:26;;;;;;;5.90;2.90;;;;;;;;;;4995298;28;20486;-73
2022/05/18 12:14:15;;;;;;;5.30;2.63;;;;;;;;;;5013775;28;20226;-73
2022/05/18 12:16:59;;;;;;;3.22;2.80;;;;;;;;;;5004063;28;20362;-72
2022/05/18 12:19:43;;;;;;;3.63;2.80;;;;;;;;;;5026023;28;20220;-73
2022/05/18 12:22:12;;;;;;;4.78;2.55;;;;;;;;;;5004656;28;20582;-72
2022/05/18 12:24:41;;;;;;;4.78;2.58;;;;;;;;;;5005342;28;20216;-72
2022/05/18 12:27:08;;;;;;;3.63;2.15;;;;;;;;;;4988034;28;20229;-72
2022/05/18 12:29:37;;;;;;;3.05;2.00;;;;;;;;;;5002335;28;20224;-74
2022/05/18 12:32:04;;;;;;;3.83;1.80;;;;;;;;;;4976694;28;20577;-73
2022/05/18 12:34:35;;;;;;;4.03;1.90;;;;;;;;;;4980491;28;20302;-73
2022/05/18 12:37:13;;;;;;;2.65;2.10;;;;;;;;;;5019171;28;20662;-72
2022/05/18 12:40:07;;;;;;;2.33;1.70;;;;;;;;;;5020309;28;20231;-72
2022/05/18 12:42:34;;;;;;;3.92;1.80;;;;;;;;;;4987853;28;20227;-73
2022/05/18 12:45:14;;;;;;;3.40;1.88;;;;;;;;;;4977636;28;20224;-72
2022/05/18 12:47:52;;;;;;;2.78;1.77;;;;;;;;;;5008393;28;20220;-71
2022/05/18 12:50:30;;;;;;;2.08;1.70;;;;;;;;;;5004855;28;20724;-72
2022/05/18 12:52:58;;;;;;;2.17;1.90;;;;;;;;;;4972704;28;20278;-72
2022/05/18 12:55:33;;;;;;;3.05;2.10;;;;;;;;;;4993334;28;20281;-74
2022/05/18 12:58:08;;;;;;;3.58;2.00;;;;;;;;;;4988481;28;20243;-73
2022/05/18 13:00:46;;;;;;;2.65;1.50;;;;;;;;;;5018527;28;20270;-72
2022/05/18 13:03:11;;;;;;;2.70;1.70;;;;;;;;;;5015815;28;20251;-72
2022/05/18 13:05:41;;;;;;;4.07;2.03;;;;;;;;;;5023034;28;20594;-72
2022/05/18 13:08:16;;;;;;;3.17;1.85;;;;;;;;;;5004202;28;20224;-72
2022/05/18 13:11:13;;;;;;;2.47;1.50;;;;;;;;;;5020376;28;20254;-72
2022/05/18 13:14:02;;;;;;;2.75;1.90;;;;;;;;;;5025131;28;20212;-71
2022/05/18 13:16:37;;;;;;;2.20;1.50;;;;;;;;;;5005535;28;20235;-71
2022/05/18 13:19:31;;;;;;;3.00;1.30;;;;;;;;;;5001532;28;20327;-72
2022/05/18 13:22:16;;;;;;;1.65;1.33;;;;;;;;;;5009897;28;20315;-71
2022/05/18 13:24:46;;;;;;;2.58;1.30;;;;;;;;;;5025848;28;20295;-72
2022/05/18 13:27:19;;;;;;;2.72;1.55;;;;;;;;;;5007088;28;20824;-71
2022/05/18 13:29:46;;;;;;;2.72;1.77;;;;;;;;;;4993674;28;20220;-72
2022/05/18 13:32:17;;;;;;;1.70;1.60;;;;;;;;;;4993220;28;20226;-73
2022/05/18 13:34:48;;;;;;;1.77;1.52;;;;;;;;;;4991711;28;20219;-73
2022/05/18 13:37:14;;;;;;;4.50;1.42;;;;;;;;;;4993369;28;20224;-73
2022/05/18 13:39:48;;;;;;;2.15;1.60;;;;;;;;;;5003499;28;20224;-73
2022/05/18 13:42:21;;;;;;;4.47;1.60;;;;;;;;;;4990572;28;20322;-72
2022/05/18 13:44:50;;;;;;;1.80;1.25;;;;;;;;;;5010691;28;20227;-72
2022/05/18 13:47:28;;;;;;;2.75;1.50;;;;;;;;;;4977384;28;20728;-72
2022/05/18 13:49:55;;;;;;;1.80;1.42;;;;;;;;;;5010750;28;20278;-72
2022/05/18 13:52:28;;;;;;;2.75;1.30;;;;;;;;;;4978994;28;20211;-71
2022/05/18 13:55:02;;;;;;;2.50;1.67;;;;;;;;;;5013116;28;20208;-73
2022/05/18 13:57:57;;;;;;;2.42;1.38;;;;;;;;;;4997491;28;20802;-72
2022/05/18 14:00:31;;;;;;;4.03;1.40;;;;;;;;;;5002479;28;20224;-74
2022/05/18 14:02:58;;;;;;;4.03;1.70;;;;;;;;;;5025919;28;20216;-72
2022/05/18 14:05:28;;;;;;;2.45;1.50;;;;;;;;;;4982061;28;20282;-72
2022/05/18 14:07:53;;;;;;;4.20;1.30;;;;;;;;;;5006478;28;20240;-72
2022/05/18 14:10:22;;;;;;;2.08;1.40;;;;;;;;;;5008454;28;20853;-73
2022/05/18 14:12:56;;;;;;;2.13;1.48;;;;;;;;;;5009840;28;20239;-72
2022/05/18 14:15:27;;;;;;;4.70;1.40;;;;;;;;;;5009539;28;20221;-72
2022/05/18 14:17:54;;;;;;;1.98;1.50;;;;;;;;;;4981835;28;20224;-72
2022/05/18 14:20:43;;;;;;;3.13;1.30;;;;;;;;;;4981429;28;20216;-73
2022/05/18 14:23:24;;;;;;;1.33;1.23;;;;;;;;;;4993867;28;20231;-71
2022/05/18 14:25:53;;;;;;;2.42;1.40;;;;;;;;;;4994670;28;20700;-72
2022/05/18 14:28:26;;;;;;;2.13;1.40;;;;;;;;;;5008171;28;20243;-72
2022/05/18 14:30:52;;;;;;;2.65;1.48;;;;;;;;;;4994980;28;20702;-72
2022/05/18 14:33:29;;;;;;;1.17;1.08;;;;;;;;;;4989097;28;20224;-72
2022/05/18 14:35:55;;;;;;;1.90;1.00;;;;;;;;;;5021907;28;20666;-73
2022/05/18 14:38:38;;;;;;;1.65;1.35;;;;;;;;;;5008653;28;20262;-72
2022/05/18 14:41:07;;;;;;;4.40;1.60;;;;;;;;;;4975943;28;20228;-73
2022/05/18 14:43:33;;;;;;;1.33;1.20;;;;;;;;;;4997146;28;20718;-73
2022/05/18 14:46:21;;;;;;;2.40;1.40;;;;;;;;;;4993231;28;20220;-72
2022/05/18 14:48:50;;;;;;;2.08;1.45;;;;;;;;;;4985832;28;20258;-72
2022/05/18 14:51:40;;;;;;;3.40;1.40;;;;;;;;;;4991895;28;20228;-73
2022/05/18 14:54:13;;;;;;;3.03;1.20;;;;;;;;;;5007688;28;20258;-72
2022/05/18 14:56:42;;;;;;;1.88;1.40;;;;;;;;;;5009541;28;20228;-73
2022/05/18 14:59:09;;;;;;;4.10;1.50;;;;;;;;;;4976148;28;20645;-72
2022/05/18 15:01:46;;;;;;;2.08;1.48;;;;;;;;;;4987743;28;20323;-72
2022/05/18 15:04:38;;;;;;;4.20;1.63;;;;;;;;;;4977653;28;20220;-73
2022/05/18 15:07:09;;;;;;;2.08;1.60;;;;;;;;;;4991283;28;20217;-72
2022/05/18 15:09:45;;;;;;;2.78;1.60;;;;;;;;;;4975733;28;20777;-72
2022/05/18 15:12:17;;;;;;;4.82;1.40;;;;;;;;;;4986224;28;20220;-72